Terminal Aerodrome Forecast
Issued by NWS

Current Version | Previous Version | Graphics & Text | Print | Product List | Glossary On
Versions: 1 2 3 4 5 6 7 8 9 10 11 12 13 14 15 16 17 18 19 20 21 22 23
000
FTUS41 KRLX 211700
TAFCKB
TAF
KCKB 211721Z 2118/2218 27005KT P6SM SCT040
     FM212300 24004KT P6SM SKC
     FM220000 00000KT P6SM FEW200
     FM221600 20006KT P6SM BKN050=

USA.gov is the U.S. government's official web portal to all federal, state and local government web resources and services.